createdAt,value
2023-04-16T00:00:53.766Z,18.15
2023-04-16T00:03:21.535Z,17.80
2023-04-16T00:05:49.225Z,18.77
2023-04-16T00:08:17.011Z,18.42
2023-04-16T00:10:45.876Z,17.05
2023-04-16T00:13:13.394Z,18.95
2023-04-16T00:15:40.884Z,18.73
2023-04-16T00:18:08.354Z,18.23
2023-04-16T00:20:35.840Z,18.38
2023-04-16T00:23:03.482Z,18.27
2023-04-16T00:25:31.283Z,19.30
2023-04-16T00:28:00.116Z,19.27
2023-04-16T00:30:27.711Z,20.48
2023-04-16T00:32:55.185Z,18.65
2023-04-16T00:35:22.725Z,18.17
2023-04-16T00:37:50.300Z,18.73
2023-04-16T00:40:17.851Z,18.27
2023-04-16T00:42:45.611Z,19.67
2023-04-16T00:45:14.520Z,21.23
2023-04-16T00:47:42.103Z,19.92
2023-04-16T00:50:10.118Z,19.50
2023-04-16T00:52:38.592Z,19.88
2023-04-16T00:55:07.134Z,17.92
2023-04-16T00:57:34.664Z,18.88
2023-04-16T01:00:02.272Z,18.92
2023-04-16T01:02:31.255Z,18.27
2023-04-16T01:04:58.845Z,18.80
2023-04-16T01:07:26.543Z,19.45
2023-04-16T01:09:54.084Z,21.20
2023-04-16T01:12:21.575Z,18.75
2023-04-16T01:14:49.414Z,18.42
2023-04-16T01:17:17.072Z,20.27
2023-04-16T01:19:45.897Z,18.92
2023-04-16T01:22:14.876Z,19.13
2023-04-16T01:24:42.415Z,19.00
2023-04-16T01:27:09.919Z,19.60
2023-04-16T01:29:37.423Z,18.55
2023-04-16T01:32:05.000Z,18.77
2023-04-16T01:34:32.599Z,21.20
2023-04-16T01:37:00.167Z,21.58
2023-04-16T01:39:29.007Z,20.88
2023-04-16T01:41:57.169Z,19.33
2023-04-16T01:44:25.575Z,19.90
2023-04-16T01:46:53.146Z,19.92
2023-04-16T01:49:20.658Z,19.25
2023-04-16T01:51:48.730Z,19.58
2023-04-16T01:54:16.337Z,21.23
2023-04-16T01:56:45.443Z,20.13
2023-04-16T01:59:13.440Z,20.85
2023-04-16T02:01:42.035Z,21.63
2023-04-16T02:04:09.614Z,20.75
2023-04-16T02:06:37.321Z,21.95
2023-04-16T02:09:04.913Z,21.33
2023-04-16T02:11:32.397Z,21.00
2023-04-16T02:14:01.314Z,21.23
2023-04-16T02:16:28.831Z,19.23
2023-04-16T02:18:56.355Z,19.95
2023-04-16T02:21:23.917Z,18.10
2023-04-16T02:23:52.006Z,19.10
2023-04-16T02:26:19.663Z,19.25
2023-04-16T02:28:47.198Z,20.42
2023-04-16T02:31:17.981Z,18.90
2023-04-16T02:33:45.850Z,19.45
2023-04-16T02:36:14.297Z,18.45
2023-04-16T02:38:41.757Z,20.73
2023-04-16T02:41:09.249Z,18.90
2023-04-16T02:43:36.980Z,20.50
2023-04-16T02:46:04.554Z,19.02
2023-04-16T02:48:33.452Z,20.33
2023-04-16T02:51:00.996Z,18.70
2023-04-16T02:53:28.552Z,19.92
2023-04-16T02:55:56.629Z,18.45
2023-04-16T02:58:25.436Z,21.05
2023-04-16T03:00:53.223Z,19.73
2023-04-16T03:03:21.186Z,19.95
2023-04-16T03:05:50.162Z,19.52
2023-04-16T03:08:17.690Z,18.67
2023-04-16T03:10:45.168Z,19.75
2023-04-16T03:13:12.710Z,19.58
2023-04-16T03:15:40.226Z,19.08
2023-04-16T03:18:07.715Z,18.98
2023-04-16T03:20:35.423Z,18.85
2023-04-16T03:23:04.231Z,18.88
2023-04-16T03:25:31.784Z,20.52
2023-04-16T03:27:59.588Z,19.92
2023-04-16T03:30:27.104Z,19.92
2023-04-16T03:32:54.670Z,17.83
2023-04-16T03:35:22.582Z,18.80
2023-04-16T03:37:50.266Z,17.83
2023-04-16T03:40:19.277Z,18.88
2023-04-16T03:42:46.869Z,18.20
2023-04-16T03:45:15.021Z,17.35
2023-04-16T03:47:42.512Z,18.90
2023-04-16T03:50:11.518Z,17.30
2023-04-16T03:52:38.994Z,18.85
2023-04-16T03:55:07.089Z,19.35
2023-04-16T03:57:36.054Z,18.48
2023-04-16T04:00:03.569Z,17.27
2023-04-16T04:02:31.259Z,16.33
2023-04-16T04:05:00.581Z,15.60
2023-04-16T04:07:28.141Z,16.52
2023-04-16T04:09:55.705Z,15.98
2023-04-16T04:12:23.233Z,15.02
2023-04-16T04:14:52.072Z,14.82
2023-04-16T04:17:19.707Z,15.20
2023-04-16T04:20:00.450Z,14.45
2023-04-16T04:22:28.574Z,13.70
2023-04-16T04:24:56.401Z,14.70
2023-04-16T04:27:23.985Z,13.07
2023-04-16T04:29:52.830Z,14.00
2023-04-16T04:32:20.404Z,14.13
2023-04-16T04:34:47.950Z,15.38
2023-04-16T04:37:15.526Z,13.55
2023-04-16T04:39:43.196Z,14.38
2023-04-16T04:42:11.040Z,14.65
2023-04-16T04:44:38.568Z,12.50
2023-04-16T04:47:07.455Z,13.50
2023-04-16T04:49:34.902Z,13.98
2023-04-16T04:52:02.517Z,12.88
2023-04-16T04:54:30.349Z,13.23
2023-04-16T04:56:57.889Z,12.35
2023-04-16T04:59:25.676Z,13.35
2023-04-16T05:01:53.259Z,13.57
2023-04-16T05:04:22.108Z,12.93
2023-04-16T05:06:49.633Z,12.75
2023-04-16T05:09:17.544Z,12.15
2023-04-16T05:11:45.540Z,12.25
2023-04-16T05:14:13.039Z,14.05
2023-04-16T05:16:40.727Z,12.02
2023-04-16T05:19:08.834Z,11.55
2023-04-16T05:21:38.029Z,12.38
2023-04-16T05:24:05.853Z,13.45
2023-04-16T05:26:33.318Z,13.48
2023-04-16T05:29:00.796Z,12.77
2023-04-16T05:31:28.389Z,14.48
2023-04-16T05:33:55.903Z,13.38
2023-04-16T05:36:23.568Z,12.75
2023-04-16T05:38:52.809Z,13.27
2023-04-16T05:41:20.452Z,13.98
2023-04-16T05:43:47.957Z,14.68
2023-04-16T05:46:15.567Z,14.13
2023-04-16T05:48:43.186Z,13.05
2023-04-16T05:51:10.699Z,13.38
2023-04-16T05:53:38.279Z,14.00
2023-04-16T05:56:07.676Z,13.38
2023-04-16T05:58:35.243Z,14.07
2023-04-16T06:01:03.415Z,14.95
2023-04-16T06:03:31.464Z,14.40
2023-04-16T06:05:59.171Z,13.45
2023-04-16T06:08:26.745Z,14.02
2023-04-16T06:10:54.466Z,17.15
2023-04-16T06:13:26.249Z,12.95
2023-04-16T06:15:54.009Z,14.52
2023-04-16T06:18:21.730Z,13.27
2023-04-16T06:20:49.249Z,13.20
2023-04-16T06:23:16.850Z,13.00
2023-04-16T06:25:47.284Z,13.00
2023-04-16T06:28:17.069Z,13.85
2023-04-16T06:30:46.140Z,13.48
2023-04-16T06:33:13.656Z,13.32
2023-04-16T06:35:41.234Z,14.63
2023-04-16T06:38:08.884Z,12.98
2023-04-16T06:40:37.599Z,14.25
2023-04-16T06:43:05.033Z,14.93
2023-04-16T06:45:32.700Z,14.27
2023-04-16T06:48:13.418Z,13.43
2023-04-16T06:50:41.475Z,13.52
2023-04-16T06:53:09.139Z,12.80
2023-04-16T06:55:36.922Z,13.15
2023-04-16T06:58:04.726Z,14.40
2023-04-16T07:00:35.158Z,14.15
2023-04-16T07:03:04.405Z,13.85
2023-04-16T07:05:34.926Z,13.32
2023-04-16T07:08:02.377Z,15.18
2023-04-16T07:10:30.003Z,16.58
2023-04-16T07:12:57.608Z,14.00
2023-04-16T07:15:25.115Z,14.68
2023-04-16T07:17:52.599Z,15.38
2023-04-16T07:20:21.874Z,13.07
2023-04-16T07:22:52.238Z,13.20
2023-04-16T07:25:20.836Z,12.48
2023-04-16T07:27:48.383Z,11.10
2023-04-16T07:30:16.006Z,12.77
2023-04-16T07:32:43.626Z,10.77
2023-04-16T07:35:15.938Z,12.50
2023-04-16T07:37:45.060Z,12.15
2023-04-16T07:40:13.012Z,11.38
2023-04-16T07:42:44.211Z,9.80
2023-04-16T07:45:12.142Z,11.15
2023-04-16T07:47:39.827Z,11.13
2023-04-16T07:50:08.648Z,11.77
2023-04-16T07:52:37.290Z,11.90
2023-04-16T07:55:06.649Z,12.70
2023-04-16T07:57:34.396Z,12.38
2023-04-16T08:00:04.948Z,13.32
2023-04-16T08:02:32.877Z,14.65
2023-04-16T08:05:01.550Z,13.60
2023-04-16T08:07:29.226Z,12.07
2023-04-16T08:09:56.796Z,12.27
2023-04-16T08:12:27.050Z,12.60
2023-04-16T08:14:54.730Z,12.32
2023-04-16T08:17:22.372Z,12.93
2023-04-16T08:19:49.973Z,11.98
2023-04-16T08:22:17.834Z,13.00
2023-04-16T08:24:47.586Z,12.00
2023-04-16T08:27:19.894Z,13.13
2023-04-16T08:29:49.397Z,12.60
2023-04-16T08:32:17.051Z,13.40
2023-04-16T08:34:44.605Z,12.63
2023-04-16T08:37:12.187Z,14.63
2023-04-16T08:39:39.838Z,14.55
2023-04-16T08:42:12.991Z,14.15
2023-04-16T08:44:44.831Z,13.63
2023-04-16T08:47:13.803Z,13.07
2023-04-16T08:49:44.556Z,13.35
2023-04-16T08:52:13.823Z,11.88
2023-04-16T08:54:45.480Z,12.48
2023-04-16T08:57:25.179Z,11.05
2023-04-16T08:59:52.866Z,11.02
2023-04-16T09:02:21.986Z,11.85
2023-04-16T09:04:50.587Z,11.23
2023-04-16T09:07:18.685Z,12.32
2023-04-16T09:09:46.899Z,12.40
2023-04-16T09:12:14.549Z,12.57
2023-04-16T09:14:43.129Z,11.77
2023-04-16T09:17:10.899Z,13.70
2023-04-16T09:19:39.922Z,12.63
2023-04-16T09:22:07.618Z,12.35
2023-04-16T09:24:35.488Z,13.15
2023-04-16T09:27:03.561Z,13.98
2023-04-16T09:29:35.949Z,12.70
2023-04-16T09:32:04.676Z,12.43
2023-04-16T09:34:33.334Z,14.50
2023-04-16T09:39:56.669Z,11.70
2023-04-16T09:42:24.977Z,13.15
2023-04-16T09:44:53.887Z,12.15
2023-04-16T09:47:21.998Z,13.38
2023-04-16T09:49:49.488Z,12.43
2023-04-16T09:52:17.424Z,14.40
2023-04-16T09:54:48.574Z,13.15
2023-04-16T09:57:20.742Z,13.00
2023-04-16T09:59:48.391Z,13.40
2023-04-16T10:02:16.687Z,13.68
2023-04-16T10:04:48.147Z,13.52
2023-04-16T10:07:15.903Z,14.07
2023-04-16T10:09:43.691Z,14.48
2023-04-16T10:12:12.895Z,14.20
2023-04-16T10:14:42.192Z,14.43
2023-04-16T10:17:10.200Z,14.95
2023-04-16T10:19:38.358Z,14.30
2023-04-16T10:22:06.781Z,15.00
2023-04-16T10:24:35.085Z,14.52
2023-04-16T10:27:02.795Z,14.18
2023-04-16T10:29:31.423Z,14.98
2023-04-16T10:32:01.316Z,14.05
2023-04-16T10:34:29.958Z,14.98
2023-04-16T10:36:57.665Z,13.82
2023-04-16T10:39:25.752Z,14.95
2023-04-16T10:42:07.660Z,15.07
2023-04-16T10:44:35.540Z,13.88
2023-04-16T10:47:04.603Z,14.23
2023-04-16T10:49:32.268Z,16.38
2023-04-16T10:52:00.625Z,14.25
2023-04-16T10:54:31.881Z,14.02
2023-04-16T10:57:01.628Z,16.15
2023-04-16T10:59:31.776Z,15.77
2023-04-16T11:02:02.420Z,17.25
2023-04-16T11:04:35.937Z,15.23
2023-04-16T11:07:09.285Z,15.95
2023-04-16T11:09:54.559Z,17.05
2023-04-16T11:12:23.707Z,16.42
2023-04-16T11:14:57.320Z,17.13
2023-04-16T11:17:31.653Z,15.77
2023-04-16T11:20:00.804Z,15.10
2023-04-16T11:22:28.444Z,16.42
2023-04-16T11:24:56.542Z,18.13
2023-04-16T11:27:24.435Z,15.98
2023-04-16T11:29:58.260Z,16.58
2023-04-16T11:32:26.005Z,15.25
2023-04-16T11:34:53.664Z,17.08
2023-04-16T11:37:33.075Z,16.90
2023-04-16T11:40:01.408Z,16.55
2023-04-16T11:42:29.405Z,16.45
2023-04-16T11:45:00.991Z,15.93
2023-04-16T11:47:28.817Z,15.63
2023-04-16T11:49:56.647Z,16.63
2023-04-16T11:52:29.579Z,16.40
2023-04-16T11:54:57.578Z,16.23
2023-04-16T11:57:25.849Z,16.60
2023-04-16T12:00:03.029Z,15.68
2023-04-16T12:02:36.370Z,17.00
2023-04-16T12:05:04.747Z,16.52
2023-04-16T12:07:33.880Z,16.05
2023-04-16T12:10:08.080Z,15.38
2023-04-16T12:12:35.850Z,15.15
2023-04-16T12:15:05.157Z,16.45
2023-04-16T12:17:33.415Z,17.00
2023-04-16T12:20:02.023Z,13.05
2023-04-16T12:22:30.405Z,14.27
2023-04-16T12:25:01.223Z,14.35
2023-04-16T12:27:46.456Z,14.55
2023-04-16T12:30:14.756Z,13.38
2023-04-16T12:32:43.130Z,14.68
2023-04-16T12:35:13.859Z,13.95
2023-04-16T12:37:41.728Z,15.10
2023-04-16T12:40:11.419Z,16.45
2023-04-16T12:42:39.321Z,17.85
2023-04-16T12:45:08.821Z,15.48
2023-04-16T12:47:36.606Z,14.80
2023-04-16T12:50:04.740Z,15.25
2023-04-16T12:52:32.698Z,14.50
2023-04-16T12:55:00.692Z,16.17
2023-04-16T12:57:30.003Z,15.38
2023-04-16T12:59:57.857Z,18.38
2023-04-16T13:02:26.207Z,16.25
2023-04-16T13:04:54.560Z,15.60
2023-04-16T13:07:22.412Z,14.68
2023-04-16T13:09:50.003Z,16.55
2023-04-16T13:12:17.644Z,15.77
2023-04-16T13:14:49.812Z,15.77
2023-04-16T13:17:20.566Z,17.55
2023-04-16T13:19:48.089Z,17.60
2023-04-16T13:22:15.917Z,16.23
2023-04-16T13:24:43.568Z,16.65
2023-04-16T13:27:12.478Z,16.77
2023-04-16T13:29:40.215Z,16.48
2023-04-16T13:32:09.190Z,16.02
2023-04-16T13:34:36.908Z,18.15
2023-04-16T13:37:04.677Z,15.77
2023-04-16T13:39:32.250Z,16.33
2023-04-16T13:42:00.152Z,16.38
2023-04-16T13:44:27.742Z,16.02
2023-04-16T13:46:57.549Z,15.25
2023-04-16T13:49:26.766Z,16.33
2023-04-16T13:51:54.421Z,14.90
2023-04-16T13:54:21.987Z,17.23
2023-04-16T13:56:53.206Z,14.63
2023-04-16T13:59:20.783Z,14.82
2023-04-16T14:01:48.436Z,14.75
2023-04-16T14:04:16.107Z,14.77
2023-04-16T14:06:45.263Z,14.95
2023-04-16T14:09:15.324Z,14.77
2023-04-16T14:11:43.031Z,14.05
2023-04-16T14:14:10.796Z,14.68
2023-04-16T14:16:38.370Z,14.85
2023-04-16T14:19:06.113Z,15.27
2023-04-16T14:21:34.026Z,13.93
2023-04-16T14:24:03.197Z,14.40
2023-04-16T14:26:30.734Z,16.58
2023-04-16T14:28:58.497Z,15.05
2023-04-16T14:31:26.245Z,15.30
2023-04-16T14:33:53.883Z,14.93
2023-04-16T14:36:21.707Z,15.65
2023-04-16T14:38:50.824Z,15.13
2023-04-16T14:41:19.740Z,17.05
2023-04-16T14:43:47.264Z,14.85
2023-04-16T14:46:17.741Z,14.63
2023-04-16T14:48:45.601Z,15.23
2023-04-16T14:51:13.216Z,15.48
2023-04-16T14:53:41.678Z,15.15
2023-04-16T14:56:09.247Z,16.02
2023-04-16T14:58:40.611Z,15.68
2023-04-16T15:01:08.942Z,15.18
2023-04-16T15:03:36.851Z,16.40
2023-04-16T15:06:08.568Z,16.77
2023-04-16T15:08:36.497Z,14.88
2023-04-16T15:11:04.037Z,16.38
2023-04-16T15:13:34.170Z,18.17
2023-04-16T15:16:04.458Z,15.88
2023-04-16T15:18:32.124Z,16.98
2023-04-16T15:20:59.900Z,21.48
2023-04-16T15:23:29.961Z,18.77
2023-04-16T15:25:57.470Z,18.90
2023-04-16T15:28:25.125Z,17.25
2023-04-16T15:30:53.340Z,17.98
2023-04-16T15:33:25.400Z,19.80
2023-04-16T15:35:53.446Z,18.08
2023-04-16T15:38:21.391Z,18.42
2023-04-16T15:40:49.127Z,18.60
2023-04-16T15:43:17.120Z,18.83
2023-04-16T15:45:45.259Z,18.55
2023-04-16T15:48:21.589Z,17.65
2023-04-16T15:50:50.658Z,18.25
2023-04-16T15:53:18.187Z,18.70
2023-04-16T15:55:45.993Z,19.27
2023-04-16T15:58:13.908Z,20.05
2023-04-16T16:00:41.788Z,17.35
2023-04-16T16:03:12.532Z,19.30
2023-04-16T16:05:40.349Z,18.58
2023-04-16T16:08:09.664Z,18.70
2023-04-16T16:10:37.388Z,18.45
2023-04-16T16:13:07.985Z,20.30
2023-04-16T16:15:35.792Z,17.25
2023-04-16T16:18:03.421Z,19.80
2023-04-16T16:20:30.932Z,20.98
2023-04-16T16:22:58.946Z,20.58
2023-04-16T16:25:28.160Z,19.85
2023-04-16T16:27:55.712Z,17.73
2023-04-16T16:30:23.282Z,19.08
2023-04-16T16:32:51.193Z,19.92
2023-04-16T16:35:18.783Z,18.48
2023-04-16T16:37:46.342Z,18.13
2023-04-16T16:40:15.212Z,18.67
2023-04-16T16:42:44.194Z,16.33
2023-04-16T16:45:12.132Z,18.65
2023-04-16T16:47:39.721Z,17.40
2023-04-16T16:50:08.000Z,17.48
2023-04-16T16:52:35.513Z,17.40
2023-04-16T16:55:03.050Z,17.23
2023-04-16T16:57:30.768Z,19.70
2023-04-16T16:59:59.729Z,16.15
2023-04-16T17:02:27.492Z,18.45
2023-04-16T17:04:55.305Z,16.70
2023-04-16T17:07:22.784Z,18.63
2023-04-16T17:09:50.432Z,15.77
2023-04-16T17:12:18.018Z,18.08
2023-04-16T17:14:45.912Z,17.10
2023-04-16T17:17:14.974Z,17.33
2023-04-16T17:19:42.462Z,16.70
2023-04-16T17:22:10.010Z,16.15
2023-04-16T17:24:37.583Z,16.02
2023-04-16T17:27:06.126Z,17.75
2023-04-16T17:29:33.629Z,15.27
2023-04-16T17:32:01.557Z,15.20
2023-04-16T17:34:30.559Z,14.60
2023-04-16T17:36:58.152Z,15.07
2023-04-16T17:39:25.914Z,15.45
2023-04-16T17:41:57.320Z,16.30
2023-04-16T17:44:25.836Z,16.45
2023-04-16T17:46:53.390Z,15.88
2023-04-16T17:49:21.047Z,14.70
2023-04-16T17:51:50.035Z,16.65
2023-04-16T17:54:17.732Z,15.45
2023-04-16T17:56:46.159Z,15.43
2023-04-16T17:59:13.851Z,14.60
2023-04-16T18:01:41.696Z,16.38
2023-04-16T18:04:09.427Z,16.00
2023-04-16T18:06:37.442Z,15.00
2023-04-16T18:09:06.680Z,16.83
2023-04-16T18:11:34.179Z,17.92
2023-04-16T18:14:04.381Z,16.02
2023-04-16T18:16:32.344Z,15.57
2023-04-16T18:19:02.670Z,16.65
2023-04-16T18:21:31.577Z,15.73
2023-04-16T18:24:00.999Z,15.80
2023-04-16T18:26:30.062Z,16.20
2023-04-16T18:28:57.877Z,14.43
2023-04-16T18:31:25.528Z,15.98
2023-04-16T18:33:58.001Z,14.95
2023-04-16T18:36:29.514Z,15.18
2023-04-16T18:39:02.205Z,15.43
2023-04-16T18:41:31.805Z,16.05
2023-04-16T18:43:59.370Z,15.88
2023-04-16T18:46:27.543Z,16.00
2023-04-16T18:48:56.002Z,16.60
2023-04-16T18:51:23.549Z,19.35
2023-04-16T18:53:51.314Z,16.48
2023-04-16T18:56:19.932Z,17.20
2023-04-16T18:58:49.414Z,16.40
2023-04-16T19:01:17.974Z,16.67
2023-04-16T19:03:45.718Z,15.82
2023-04-16T19:06:13.277Z,15.80
2023-04-16T19:08:40.873Z,16.70
2023-04-16T19:11:08.454Z,15.68
2023-04-16T19:13:38.882Z,15.90
2023-04-16T19:16:11.383Z,16.02
2023-04-16T19:18:39.268Z,13.65
2023-04-16T19:21:07.097Z,14.32
2023-04-16T19:23:34.775Z,15.68
2023-04-16T19:26:02.382Z,13.07
2023-04-16T19:28:29.881Z,12.43
2023-04-16T19:30:57.388Z,12.45
2023-04-16T19:33:26.206Z,13.07
2023-04-16T19:35:53.747Z,13.18
2023-04-16T19:38:21.350Z,13.85
2023-04-16T19:40:49.366Z,12.32
2023-04-16T19:43:16.881Z,13.25
2023-04-16T19:45:44.941Z,12.07
2023-04-16T19:48:15.492Z,13.25
2023-04-16T19:50:44.926Z,13.13
2023-04-16T19:53:12.725Z,12.70
2023-04-16T19:55:40.441Z,11.20
2023-04-16T19:58:07.998Z,11.68
2023-04-16T20:00:37.153Z,10.98
2023-04-16T20:03:08.407Z,11.27
2023-04-16T20:05:36.162Z,13.02
2023-04-16T20:08:05.396Z,11.75
2023-04-16T20:10:32.880Z,13.25
2023-04-16T20:13:00.447Z,11.20
2023-04-16T20:15:28.312Z,11.80
2023-04-16T20:17:56.223Z,11.38
2023-04-16T20:20:23.902Z,11.35
2023-04-16T20:22:51.663Z,12.50
2023-04-16T20:25:21.570Z,11.88
2023-04-16T20:27:49.068Z,11.85
2023-04-16T20:30:17.655Z,12.85
2023-04-16T20:32:45.227Z,13.05
2023-04-16T20:35:12.844Z,14.20
2023-04-16T20:37:42.544Z,12.32
2023-04-16T20:40:14.982Z,14.57
2023-04-16T20:42:46.534Z,14.32
2023-04-16T20:45:17.249Z,12.88
2023-04-16T20:47:44.865Z,12.98
2023-04-16T20:50:12.667Z,12.15
2023-04-16T20:52:40.242Z,13.05
2023-04-16T20:55:08.792Z,13.82
2023-04-16T20:57:36.594Z,13.57
2023-04-16T21:00:09.430Z,13.48
2023-04-16T21:02:37.364Z,15.63
2023-04-16T21:05:06.317Z,13.77
2023-04-16T21:07:33.880Z,14.70
2023-04-16T21:10:01.723Z,15.77
2023-04-16T21:12:29.224Z,14.25
2023-04-16T21:14:57.203Z,14.93
2023-04-16T21:17:26.154Z,16.83
2023-04-16T21:19:53.692Z,14.90
2023-04-16T21:22:21.178Z,14.23
2023-04-16T21:24:48.792Z,14.68
2023-04-16T21:27:16.306Z,14.88
2023-04-16T21:29:43.976Z,14.30
2023-04-16T21:32:11.830Z,15.80
2023-04-16T21:34:41.146Z,17.45
2023-04-16T21:37:10.628Z,15.43
2023-04-16T21:39:40.672Z,13.55
2023-04-16T21:42:08.163Z,15.70
2023-04-16T21:44:35.667Z,14.25
2023-04-16T21:47:03.253Z,13.48
2023-04-16T21:49:30.790Z,15.70
2023-04-16T21:51:59.623Z,15.88
2023-04-16T21:54:27.224Z,14.75
2023-04-16T21:56:54.858Z,14.30
2023-04-16T21:59:22.321Z,13.70
2023-04-16T22:01:50.269Z,13.88
2023-04-16T22:04:17.874Z,14.68
2023-04-16T22:06:46.329Z,14.13
2023-04-16T22:09:15.489Z,13.80
2023-04-16T22:11:43.007Z,14.05
2023-04-16T22:14:10.488Z,13.68
2023-04-16T22:16:38.079Z,12.65
2023-04-16T22:19:05.673Z,11.70
2023-04-16T22:21:33.175Z,13.48
2023-04-16T22:24:02.762Z,14.18
2023-04-16T22:26:32.156Z,11.68
2023-04-16T22:28:59.688Z,12.20
2023-04-16T22:31:27.326Z,12.25
2023-04-16T22:33:54.870Z,12.02
2023-04-16T22:36:22.376Z,11.68
2023-04-16T22:38:49.974Z,11.73
2023-04-16T22:41:17.487Z,11.85
2023-04-16T22:43:46.382Z,12.82
2023-04-16T22:46:13.964Z,12.15
2023-04-16T22:48:41.488Z,11.13
2023-04-16T22:51:09.633Z,12.50
2023-04-16T22:53:37.211Z,12.48
2023-04-16T22:56:04.825Z,12.23
2023-04-16T22:58:32.289Z,12.18
2023-04-16T23:01:01.797Z,12.52
2023-04-16T23:03:29.528Z,12.20
2023-04-16T23:05:57.151Z,13.15
2023-04-16T23:08:24.758Z,12.27
2023-04-16T23:10:52.217Z,13.05
2023-04-16T23:13:19.751Z,12.35
2023-04-16T23:15:47.587Z,11.45
2023-04-16T23:18:16.912Z,12.82
2023-04-16T23:20:44.380Z,12.77
2023-04-16T23:23:14.281Z,11.18
2023-04-16T23:25:42.006Z,12.38
2023-04-16T23:28:09.522Z,13.50
2023-04-16T23:30:37.091Z,12.57
2023-04-16T23:33:04.717Z,11.93
2023-04-16T23:35:33.623Z,14.40
2023-04-16T23:38:01.305Z,12.18
2023-04-16T23:40:28.865Z,12.00
2023-04-16T23:42:56.373Z,11.13
2023-04-16T23:45:23.936Z,12.73
2023-04-16T23:47:51.760Z,12.45
2023-04-16T23:50:19.354Z,13.68
2023-04-16T23:52:49.873Z,11.60
2023-04-16T23:55:17.349Z,12.73
2023-04-16T23:57:44.980Z,12.77
